createdAt,value
2022-10-08T00:01:32.220Z,15.00
2022-10-08T00:04:00.678Z,14.84
2022-10-08T00:06:31.033Z,15.00
2022-10-08T00:09:02.432Z,14.82
2022-10-08T00:11:34.587Z,14.78
2022-10-08T00:14:03.481Z,14.50
2022-10-08T00:16:33.462Z,14.45
2022-10-08T00:19:03.896Z,14.32
2022-10-08T00:21:34.138Z,14.17
2022-10-08T00:24:02.987Z,13.97
2022-10-08T00:26:32.432Z,14.00
2022-10-08T00:29:04.288Z,14.20
2022-10-08T00:31:34.188Z,14.12
2022-10-08T00:34:06.957Z,14.23
2022-10-08T00:36:36.569Z,14.20
2022-10-08T00:39:07.229Z,14.37
2022-10-08T00:41:38.339Z,14.43
2022-10-08T00:44:39.997Z,14.80
2022-10-08T00:47:16.093Z,14.75
2022-10-08T00:49:45.001Z,14.25
2022-10-08T00:52:13.096Z,14.24
2022-10-08T00:54:41.303Z,14.27
2022-10-08T00:57:10.189Z,14.25
2022-10-08T00:59:38.603Z,14.14
2022-10-08T01:02:08.488Z,14.21
2022-10-08T01:04:39.053Z,14.41
2022-10-08T01:07:14.158Z,14.51
2022-10-08T01:09:47.181Z,14.41
2022-10-08T01:12:24.063Z,14.43
2022-10-08T01:14:57.649Z,14.43
2022-10-08T01:17:31.520Z,14.43
2022-10-08T01:20:16.951Z,14.61
2022-10-08T01:22:58.533Z,14.53
2022-10-08T01:25:35.805Z,14.46
2022-10-08T01:28:12.708Z,14.36
2022-10-08T01:30:43.200Z,14.26
2022-10-08T01:33:14.141Z,14.20
2022-10-08T01:35:45.357Z,14.14
2022-10-08T01:38:16.515Z,14.13
2022-10-08T01:40:45.220Z,14.64
2022-10-08T01:43:17.148Z,14.19
2022-10-08T01:45:48.677Z,14.05
2022-10-08T01:48:17.825Z,14.63
2022-10-08T01:50:50.433Z,14.27
2022-10-08T01:53:19.116Z,14.02
2022-10-08T01:55:50.225Z,14.15
2022-10-08T01:58:22.157Z,13.99
2022-10-08T02:00:51.502Z,13.82
2022-10-08T02:03:19.622Z,13.61
2022-10-08T02:05:51.380Z,13.94
2022-10-08T02:08:20.044Z,13.70
2022-10-08T02:10:48.251Z,13.55
2022-10-08T02:13:16.637Z,13.65
2022-10-08T02:15:53.213Z,14.04
2022-10-08T02:18:24.602Z,13.86
2022-10-08T02:20:56.562Z,13.83
2022-10-08T02:23:26.788Z,13.74
2022-10-08T02:25:58.181Z,13.74
2022-10-08T02:28:32.018Z,13.89
2022-10-08T02:31:07.041Z,13.90
2022-10-08T02:33:38.950Z,13.74
2022-10-08T02:36:09.612Z,13.80
2022-10-08T02:38:39.600Z,13.74
2022-10-08T02:41:09.033Z,13.81
2022-10-08T02:43:39.744Z,13.95
2022-10-08T02:46:12.972Z,13.94
2022-10-08T02:48:42.530Z,13.69
2022-10-08T02:51:14.013Z,13.88
2022-10-08T02:53:43.100Z,13.62
2022-10-08T02:56:16.448Z,13.74
2022-10-08T02:58:45.886Z,13.29
2022-10-08T03:01:18.648Z,13.69
2022-10-08T03:03:50.417Z,13.60
2022-10-08T03:06:19.452Z,13.32
2022-10-08T03:08:50.205Z,13.47
2022-10-08T03:11:18.575Z,13.38
2022-10-08T03:13:48.234Z,13.57
2022-10-08T03:16:23.472Z,13.63
2022-10-08T03:18:52.392Z,13.30
2022-10-08T03:21:20.737Z,13.06
2022-10-08T03:23:49.094Z,13.07
2022-10-08T03:26:18.290Z,13.18
2022-10-08T03:28:46.831Z,12.90
2022-10-08T03:31:14.975Z,12.97
2022-10-08T03:33:44.615Z,13.32
2022-10-08T03:36:12.958Z,13.00
2022-10-08T03:38:41.060Z,13.02
2022-10-08T03:41:09.824Z,13.25
2022-10-08T03:43:38.091Z,13.09
2022-10-08T03:46:06.715Z,13.11
2022-10-08T03:48:35.455Z,13.16
2022-10-08T03:51:07.903Z,13.33
2022-10-08T03:53:38.233Z,13.13
2022-10-08T03:56:08.430Z,13.10
2022-10-08T03:58:36.856Z,12.76
2022-10-08T04:01:07.204Z,12.94
2022-10-08T04:03:36.094Z,12.72
2022-10-08T04:06:05.732Z,13.01
2022-10-08T04:08:34.817Z,12.97
2022-10-08T04:11:04.904Z,13.11
2022-10-08T04:13:33.488Z,12.97
2022-10-08T04:16:02.665Z,13.13
2022-10-08T04:18:31.352Z,13.02
2022-10-08T04:20:59.894Z,13.20
2022-10-08T04:23:30.244Z,13.55
2022-10-08T04:25:58.556Z,13.32
2022-10-08T04:28:26.749Z,13.39
2022-10-08T04:30:59.500Z,13.95
2022-10-08T04:33:28.543Z,13.57
2022-10-08T04:36:00.101Z,13.33
2022-10-08T04:38:30.225Z,13.47
2022-10-08T04:41:06.564Z,13.60
2022-10-08T04:43:35.195Z,13.03
2022-10-08T04:46:03.753Z,12.97
2022-10-08T04:48:32.091Z,12.81
2022-10-08T04:51:04.884Z,13.01
2022-10-08T04:53:36.994Z,13.27
2022-10-08T04:56:10.000Z,13.51
2022-10-08T04:58:38.435Z,13.19
2022-10-08T05:01:08.632Z,13.51
2022-10-08T05:03:38.376Z,13.62
2022-10-08T05:06:07.026Z,13.54
2022-10-08T05:08:37.285Z,13.89
2022-10-08T05:11:05.827Z,13.85
2022-10-08T05:13:34.571Z,13.90
2022-10-08T05:16:06.662Z,14.20
2022-10-08T05:18:35.440Z,13.96
2022-10-08T05:21:05.235Z,14.06
2022-10-08T05:23:33.802Z,14.10
2022-10-08T05:26:03.493Z,14.63
2022-10-08T05:28:32.108Z,14.73
2022-10-08T05:31:01.654Z,15.24
2022-10-08T05:33:30.093Z,15.71
2022-10-08T05:35:58.401Z,16.40
2022-10-08T05:38:30.261Z,17.01
2022-10-08T05:41:11.669Z,18.13
2022-10-08T05:43:40.295Z,18.01
2022-10-08T05:46:08.725Z,18.48
2022-10-08T05:48:37.157Z,19.16
2022-10-08T05:51:06.533Z,19.92
2022-10-08T05:53:36.819Z,20.74
2022-10-08T05:56:06.357Z,21.29
2022-10-08T05:58:37.535Z,22.11
2022-10-08T06:01:07.821Z,22.34
2022-10-08T06:03:36.145Z,22.18
2022-10-08T06:06:06.090Z,22.32
2022-10-08T06:08:35.240Z,22.00
2022-10-08T06:11:03.550Z,21.93
2022-10-08T06:13:32.308Z,21.77
2022-10-08T06:16:03.802Z,21.65
2022-10-08T06:18:32.806Z,21.84
2022-10-08T06:21:03.585Z,21.00
2022-10-08T06:23:33.547Z,20.49
2022-10-08T06:26:03.620Z,20.81
2022-10-08T06:28:31.977Z,20.34
2022-10-08T06:31:01.891Z,20.12
2022-10-08T06:33:30.891Z,20.03
2022-10-08T06:36:03.897Z,20.11
2022-10-08T06:38:32.298Z,20.14
2022-10-08T06:41:00.570Z,21.41
2022-10-08T06:43:28.969Z,22.43
2022-10-08T06:46:00.005Z,22.09
2022-10-08T06:48:29.469Z,21.53
2022-10-08T06:51:01.235Z,21.23
2022-10-08T06:53:29.654Z,20.49
2022-10-08T06:55:58.845Z,20.46
2022-10-08T06:58:26.984Z,20.05
2022-10-08T07:01:03.509Z,20.56
2022-10-08T07:03:33.316Z,20.62
2022-10-08T07:06:02.168Z,20.35
2022-10-08T07:08:30.733Z,20.41
2022-10-08T07:11:04.757Z,20.90
2022-10-08T07:13:33.815Z,20.65
2022-10-08T07:16:03.716Z,20.73
2022-10-08T07:18:34.589Z,20.70
2022-10-08T07:21:03.181Z,20.34
2022-10-08T07:23:32.275Z,20.49
2022-10-08T07:26:01.697Z,20.58
2022-10-08T07:28:32.115Z,20.96
2022-10-08T07:31:04.783Z,21.27
2022-10-08T07:33:34.591Z,21.61
2022-10-08T07:36:14.458Z,23.25
2022-10-08T07:38:43.145Z,24.03
2022-10-08T07:41:12.689Z,25.66
2022-10-08T07:43:41.469Z,27.09
2022-10-08T07:46:10.268Z,28.35
2022-10-08T07:48:40.082Z,29.30
2022-10-08T07:51:12.786Z,30.18
2022-10-08T07:53:41.860Z,30.36
2022-10-08T07:56:11.680Z,30.98
2022-10-08T07:58:40.530Z,31.50
2022-10-08T08:01:11.112Z,32.40
2022-10-08T08:03:40.518Z,33.38
2022-10-08T08:06:10.838Z,34.15
2022-10-08T08:08:40.915Z,35.00
2022-10-08T08:11:10.781Z,35.14
2022-10-08T08:13:41.287Z,34.68
2022-10-08T08:16:10.245Z,34.24
2022-10-08T08:18:41.226Z,32.58
2022-10-08T08:21:11.069Z,31.29
2022-10-08T08:23:41.005Z,30.10
2022-10-08T08:26:11.361Z,29.56
2022-10-08T08:28:39.652Z,29.82
2022-10-08T08:31:10.361Z,31.29
2022-10-08T08:33:40.004Z,32.26
2022-10-08T08:36:08.796Z,33.34
2022-10-08T08:38:37.882Z,34.10
2022-10-08T08:41:20.438Z,35.59
2022-10-08T08:43:49.328Z,35.28
2022-10-08T08:46:20.744Z,35.54
2022-10-08T08:48:53.134Z,35.60
2022-10-08T08:51:21.288Z,34.30
2022-10-08T08:53:49.568Z,33.03
2022-10-08T08:56:21.216Z,31.97
2022-10-08T08:58:52.797Z,30.48
2022-10-08T09:01:26.184Z,29.22
2022-10-08T09:03:58.210Z,28.52
2022-10-08T09:06:27.113Z,27.36
2022-10-08T09:08:57.974Z,26.72
2022-10-08T09:11:26.626Z,25.94
2022-10-08T09:13:57.758Z,25.86
2022-10-08T09:16:28.551Z,25.63
2022-10-08T09:18:58.095Z,25.42
2022-10-08T09:21:26.664Z,25.01
2022-10-08T09:23:54.851Z,24.92
2022-10-08T09:26:24.393Z,25.37
2022-10-08T09:28:54.767Z,25.63
2022-10-08T09:31:26.682Z,25.81
2022-10-08T09:33:59.554Z,25.90
2022-10-08T09:36:32.843Z,25.91
2022-10-08T09:39:01.750Z,25.59
2022-10-08T09:41:30.379Z,25.06
2022-10-08T09:44:20.222Z,25.24
2022-10-08T09:46:49.470Z,24.22
2022-10-08T09:49:32.364Z,24.19
2022-10-08T09:52:02.978Z,23.51
2022-10-08T09:54:36.440Z,23.59
2022-10-08T09:57:05.013Z,23.22
2022-10-08T09:59:39.637Z,23.56
2022-10-08T10:02:29.262Z,23.70
2022-10-08T10:05:00.092Z,23.11
2022-10-08T10:07:38.664Z,23.17
2022-10-08T10:10:13.699Z,22.92
2022-10-08T10:12:45.231Z,22.98
2022-10-08T10:15:16.703Z,23.10
2022-10-08T10:17:48.360Z,23.07
2022-10-08T10:20:22.078Z,23.24
2022-10-08T10:22:53.827Z,23.14
2022-10-08T10:25:30.672Z,23.36
2022-10-08T10:28:01.839Z,23.62
2022-10-08T10:30:30.544Z,23.43
2022-10-08T10:33:01.895Z,23.76
2022-10-08T10:35:32.806Z,24.02
2022-10-08T10:38:02.643Z,25.22
2022-10-08T10:40:38.260Z,25.32
2022-10-08T10:43:21.904Z,27.12
2022-10-08T10:45:55.236Z,27.86
2022-10-08T10:48:23.642Z,28.31
2022-10-08T10:51:09.834Z,28.82
2022-10-08T10:53:44.691Z,28.11
2022-10-08T10:56:15.884Z,27.49
2022-10-08T10:59:06.899Z,27.21
2022-10-08T11:01:41.232Z,26.76
2022-10-08T11:04:11.701Z,26.39
2022-10-08T11:07:02.094Z,26.49
2022-10-08T11:09:36.927Z,25.92
2022-10-08T11:12:16.293Z,25.53
2022-10-08T11:14:53.566Z,25.65
2022-10-08T11:17:33.208Z,25.85
2022-10-08T11:20:17.735Z,25.89
2022-10-08T11:22:52.199Z,26.16
2022-10-08T11:25:25.377Z,27.89
2022-10-08T11:28:03.855Z,28.97
2022-10-08T11:30:37.846Z,29.01
2022-10-08T11:33:06.837Z,28.56
2022-10-08T11:35:41.008Z,28.45
2022-10-08T11:38:16.255Z,28.19
2022-10-08T11:40:48.533Z,28.13
2022-10-08T11:43:23.903Z,27.67
2022-10-08T11:46:14.632Z,27.37
2022-10-08T11:48:42.814Z,26.05
2022-10-08T11:51:31.919Z,25.97
2022-10-08T11:54:19.460Z,25.35
2022-10-08T11:56:48.918Z,24.90
2022-10-08T11:59:31.144Z,25.43
2022-10-08T12:02:01.972Z,25.12
2022-10-08T12:04:33.150Z,25.07
2022-10-08T12:07:02.711Z,25.70
2022-10-08T12:10:25.777Z,25.33
2022-10-08T12:13:07.201Z,25.06
2022-10-08T12:16:05.054Z,25.11
2022-10-08T12:18:43.884Z,24.75
2022-10-08T12:21:54.543Z,24.42
2022-10-08T12:24:53.449Z,24.10
2022-10-08T12:27:28.813Z,23.59
2022-10-08T12:29:58.688Z,23.29
2022-10-08T12:32:27.974Z,22.95
2022-10-08T12:34:56.434Z,22.69
2022-10-08T12:37:57.277Z,23.23
2022-10-08T12:40:33.740Z,23.34
2022-10-08T12:43:14.020Z,23.46
2022-10-08T12:45:48.973Z,23.19
2022-10-08T12:48:24.036Z,22.87
2022-10-08T12:50:59.472Z,22.68
2022-10-08T12:53:27.754Z,22.02
2022-10-08T12:55:58.027Z,22.42
2022-10-08T12:58:30.760Z,22.45
2022-10-08T13:01:01.843Z,22.82
2022-10-08T13:03:30.146Z,22.60
2022-10-08T13:05:58.304Z,22.53
2022-10-08T13:08:35.046Z,23.01
2022-10-08T13:11:05.386Z,22.50
2022-10-08T13:13:42.435Z,22.61
2022-10-08T13:16:12.865Z,22.68
2022-10-08T13:18:43.552Z,22.78
2022-10-08T13:21:39.095Z,23.04
2022-10-08T13:24:33.710Z,23.17
2022-10-08T13:27:01.837Z,22.55
2022-10-08T13:29:33.764Z,22.89
2022-10-08T13:32:05.081Z,22.76
2022-10-08T13:34:35.473Z,22.80
2022-10-08T13:37:05.799Z,22.51
2022-10-08T13:39:37.916Z,22.35
2022-10-08T13:42:08.354Z,22.23
2022-10-08T13:44:39.513Z,22.21
2022-10-08T13:47:10.022Z,21.87
2022-10-08T13:49:38.418Z,21.91
2022-10-08T13:52:06.544Z,21.75
2022-10-08T13:54:37.207Z,21.72
2022-10-08T13:57:08.651Z,21.46
2022-10-08T13:59:38.506Z,21.69
2022-10-08T14:02:07.291Z,21.55
2022-10-08T14:04:35.691Z,21.56
2022-10-08T14:07:04.259Z,21.56
2022-10-08T14:09:32.865Z,21.35
2022-10-08T14:12:05.192Z,21.36
2022-10-08T14:14:33.565Z,21.20
2022-10-08T14:17:03.116Z,21.47
2022-10-08T14:19:31.427Z,21.18
2022-10-08T14:21:59.582Z,21.29
2022-10-08T14:24:27.981Z,21.10
2022-10-08T14:26:56.304Z,21.25
2022-10-08T14:29:24.624Z,21.15
2022-10-08T14:31:52.813Z,21.02
2022-10-08T14:34:22.616Z,21.32
2022-10-08T14:36:55.228Z,21.15
2022-10-08T14:39:23.862Z,21.21
2022-10-08T14:41:51.985Z,21.13
2022-10-08T14:44:22.562Z,21.20
2022-10-08T14:46:53.029Z,21.22
2022-10-08T14:49:24.055Z,21.41
2022-10-08T14:51:52.419Z,21.09
2022-10-08T14:54:21.119Z,21.01
2022-10-08T14:56:49.373Z,20.91
2022-10-08T14:59:18.411Z,20.91
2022-10-08T15:01:46.870Z,20.77
2022-10-08T15:04:15.793Z,20.78
2022-10-08T15:06:45.786Z,20.93
2022-10-08T15:09:15.544Z,20.75
2022-10-08T15:11:43.717Z,20.61
2022-10-08T15:14:12.056Z,20.66
2022-10-08T15:16:40.832Z,20.63
2022-10-08T15:19:09.470Z,20.63
2022-10-08T15:21:38.073Z,20.34
2022-10-08T15:24:08.096Z,20.67
2022-10-08T15:26:36.468Z,20.33
2022-10-08T15:29:04.889Z,20.31
2022-10-08T15:31:33.102Z,20.31
2022-10-08T15:34:01.860Z,20.29
2022-10-08T15:36:32.206Z,20.45
2022-10-08T15:39:01.524Z,20.36
2022-10-08T15:41:33.540Z,20.48
2022-10-08T15:44:09.914Z,20.51
2022-10-08T15:46:38.261Z,20.05
2022-10-08T15:49:07.080Z,20.07
2022-10-08T15:51:35.353Z,19.88
2022-10-08T15:54:04.435Z,20.00
2022-10-08T15:56:34.449Z,19.98
2022-10-08T15:59:02.986Z,19.71
2022-10-08T16:01:31.222Z,19.49
2022-10-08T16:04:00.250Z,19.50
2022-10-08T16:06:30.571Z,19.66
2022-10-08T16:08:59.239Z,19.36
2022-10-08T16:11:29.417Z,19.38
2022-10-08T16:14:00.903Z,19.49
2022-10-08T16:16:30.053Z,19.18
2022-10-08T16:18:59.867Z,19.29
2022-10-08T16:21:29.042Z,19.19
2022-10-08T16:23:57.893Z,19.08
2022-10-08T16:26:26.213Z,18.85
2022-10-08T16:28:56.156Z,18.99
2022-10-08T16:31:27.771Z,19.06
2022-10-08T16:33:56.290Z,19.50
2022-10-08T16:36:24.974Z,18.74
2022-10-08T16:38:53.695Z,18.50
2022-10-08T16:41:23.692Z,18.71
2022-10-08T16:43:53.213Z,18.60
2022-10-08T16:46:24.580Z,18.68
2022-10-08T16:48:55.385Z,18.74
2022-10-08T16:51:24.386Z,18.60
2022-10-08T16:53:54.318Z,18.50
2022-10-08T16:56:24.002Z,18.43
2022-10-08T16:58:53.167Z,18.32
2022-10-08T17:01:21.702Z,18.25
2022-10-08T17:03:50.247Z,18.17
2022-10-08T17:06:21.714Z,18.47
2022-10-08T17:08:51.397Z,18.22
2022-10-08T17:11:20.783Z,18.23
2022-10-08T17:13:50.813Z,18.33
2022-10-08T17:16:21.015Z,18.24
2022-10-08T17:18:51.719Z,18.38
2022-10-08T17:21:21.450Z,18.33
2022-10-08T17:23:50.381Z,18.12
2022-10-08T17:26:20.636Z,18.27
2022-10-08T17:28:50.276Z,18.24
2022-10-08T17:31:20.596Z,18.40
2022-10-08T17:33:49.099Z,18.10
2022-10-08T17:36:19.401Z,18.25
2022-10-08T17:38:50.007Z,18.24
2022-10-08T17:41:20.175Z,18.13
2022-10-08T17:43:49.196Z,18.06
2022-10-08T17:46:19.242Z,18.04
2022-10-08T17:48:48.104Z,17.91
2022-10-08T17:51:17.714Z,18.03
2022-10-08T17:53:46.288Z,18.08
2022-10-08T17:56:16.963Z,18.26
2022-10-08T17:58:45.040Z,18.07
2022-10-08T18:01:15.210Z,18.35
2022-10-08T18:03:44.830Z,18.16
2022-10-08T18:06:13.576Z,18.03
2022-10-08T18:08:41.825Z,17.92
2022-10-08T18:11:12.170Z,18.19
2022-10-08T18:13:41.700Z,18.18
2022-10-08T18:16:12.352Z,18.25
2022-10-08T18:18:40.882Z,17.88
2022-10-08T18:21:10.023Z,18.00
2022-10-08T18:23:38.133Z,18.01
2022-10-08T18:26:11.015Z,18.45
2022-10-08T18:28:39.573Z,18.09
2022-10-08T18:31:10.988Z,18.32
2022-10-08T18:33:40.725Z,18.18
2022-10-08T18:36:11.024Z,18.07
2022-10-08T18:38:39.690Z,17.76
2022-10-08T18:41:12.230Z,18.12
2022-10-08T18:43:40.621Z,17.63
2022-10-08T18:46:10.563Z,17.92
2022-10-08T18:48:39.120Z,17.70
2022-10-08T18:51:09.322Z,17.94
2022-10-08T18:53:39.392Z,17.95
2022-10-08T18:56:10.422Z,18.05
2022-10-08T18:58:38.635Z,17.76
2022-10-08T19:01:07.998Z,18.03
2022-10-08T19:03:37.586Z,18.10
2022-10-08T19:06:08.053Z,18.05
2022-10-08T19:08:36.237Z,17.88
2022-10-08T19:11:10.497Z,18.36
2022-10-08T19:13:38.975Z,17.80
2022-10-08T19:16:13.313Z,18.00
2022-10-08T19:18:44.306Z,18.26
2022-10-08T19:21:14.221Z,18.22
2022-10-08T19:23:43.250Z,17.96
2022-10-08T19:26:11.517Z,17.89
2022-10-08T19:28:40.373Z,17.98
2022-10-08T19:31:16.426Z,18.32
2022-10-08T19:33:49.321Z,18.16
2022-10-08T19:36:17.905Z,17.69
2022-10-08T19:38:46.372Z,17.69
2022-10-08T19:41:14.802Z,17.58
2022-10-08T19:43:44.070Z,17.72
2022-10-08T19:46:12.550Z,17.67
2022-10-08T19:48:40.736Z,17.63
2022-10-08T19:51:11.923Z,17.87
2022-10-08T19:53:40.112Z,17.60
2022-10-08T19:56:09.848Z,17.72
2022-10-08T19:58:38.836Z,17.57
2022-10-08T20:01:10.166Z,17.81
2022-10-08T20:03:39.252Z,17.45
2022-10-08T20:06:10.799Z,17.65
2022-10-08T20:08:39.156Z,17.39
2022-10-08T20:11:09.864Z,17.52
2022-10-08T20:13:38.171Z,17.15
2022-10-08T20:16:07.526Z,17.36
2022-10-08T20:18:36.222Z,17.17
2022-10-08T20:21:06.620Z,17.40
2022-10-08T20:23:36.935Z,17.42
2022-10-08T20:26:10.307Z,17.55
2022-10-08T20:28:38.690Z,17.13
2022-10-08T20:31:12.130Z,17.45
2022-10-08T20:33:41.647Z,17.01
2022-10-08T20:36:10.835Z,17.11
2022-10-08T20:38:40.633Z,17.24
2022-10-08T20:41:09.474Z,17.04
2022-10-08T20:43:39.151Z,17.14
2022-10-08T20:46:08.949Z,17.13
2022-10-08T20:48:38.286Z,17.02
2022-10-08T20:51:08.645Z,17.08
2022-10-08T20:53:36.936Z,16.84
2022-10-08T20:56:08.400Z,17.19
2022-10-08T20:58:37.507Z,16.97
2022-10-08T21:01:08.475Z,17.15
2022-10-08T21:03:37.211Z,16.84
2022-10-08T21:06:07.469Z,16.99
2022-10-08T21:08:38.026Z,17.08
2022-10-08T21:11:13.215Z,17.12
2022-10-08T21:13:41.675Z,16.70
2022-10-08T21:16:12.431Z,16.97
2022-10-08T21:18:40.755Z,16.69
2022-10-08T21:21:10.203Z,16.85
2022-10-08T21:23:39.025Z,16.75
2022-10-08T21:26:10.657Z,16.89
2022-10-08T21:28:39.172Z,16.66
2022-10-08T21:31:08.412Z,16.72
2022-10-08T21:33:37.310Z,16.66
2022-10-08T21:36:05.838Z,16.52
2022-10-08T21:38:36.398Z,16.64
2022-10-08T21:41:12.091Z,16.89
2022-10-08T21:43:43.278Z,16.95
2022-10-08T21:46:13.513Z,16.87
2022-10-08T21:48:42.153Z,16.68
2022-10-08T21:51:11.425Z,16.89
2022-10-08T21:53:41.171Z,17.03
2022-10-08T21:56:11.715Z,16.89
2022-10-08T21:58:43.787Z,17.10
2022-10-08T22:01:21.905Z,17.25
2022-10-08T22:03:50.393Z,16.74
2022-10-08T22:06:18.799Z,16.61
2022-10-08T22:08:46.933Z,16.47
2022-10-08T22:11:15.017Z,16.38
2022-10-08T22:13:44.957Z,16.61
2022-10-08T22:16:14.656Z,16.50
2022-10-08T22:18:43.600Z,16.32
2022-10-08T22:21:14.616Z,16.30
2022-10-08T22:23:43.026Z,16.01
2022-10-08T22:26:12.997Z,16.32
2022-10-08T22:28:42.235Z,16.06
2022-10-08T22:31:13.294Z,16.25
2022-10-08T22:33:41.841Z,15.90
2022-10-08T22:36:11.780Z,16.07
2022-10-08T22:38:41.147Z,16.09
2022-10-08T22:41:11.707Z,16.25
2022-10-08T22:43:41.247Z,16.10
2022-10-08T22:46:12.776Z,15.98
2022-10-08T22:48:41.584Z,15.80
2022-10-08T22:51:12.555Z,16.18
2022-10-08T22:53:40.802Z,15.92
2022-10-08T22:56:12.562Z,16.33
2022-10-08T22:58:40.706Z,15.82
2022-10-08T23:01:11.128Z,16.03
2022-10-08T23:03:41.526Z,16.03
2022-10-08T23:06:14.092Z,16.01
2022-10-08T23:08:42.774Z,15.73
2022-10-08T23:11:11.308Z,15.64
2022-10-08T23:13:39.525Z,15.47
2022-10-08T23:16:09.916Z,15.70
2022-10-08T23:18:41.400Z,15.79
2022-10-08T23:21:12.428Z,16.27
2022-10-08T23:23:41.024Z,15.57
2022-10-08T23:26:09.862Z,15.57
2022-10-08T23:28:39.066Z,15.46
2022-10-08T23:31:08.716Z,15.57
2022-10-08T23:33:38.505Z,15.36
2022-10-08T23:36:10.178Z,15.62
2022-10-08T23:38:38.534Z,15.22
2022-10-08T23:41:08.406Z,15.37
2022-10-08T23:43:37.913Z,15.26
2022-10-08T23:46:07.060Z,15.25
2022-10-08T23:48:35.675Z,15.15
2022-10-08T23:51:04.624Z,15.13
2022-10-08T23:53:34.738Z,15.39
2022-10-08T23:56:03.134Z,15.10
2022-10-08T23:58:31.574Z,14.96
